createdAt,value
2024-04-21T00:04:44.281Z,-7.86
2024-04-21T00:09:53.120Z,-7.99
2024-04-21T00:14:59.166Z,-7.45
2024-04-21T00:20:06.396Z,-7.47
2024-04-21T00:25:15.127Z,-7.40
2024-04-21T00:30:21.262Z,-7.39
2024-04-21T00:35:27.257Z,-7.47
2024-04-21T00:40:35.945Z,-8.95
2024-04-21T00:45:44.639Z,-9.64
2024-04-21T00:50:52.516Z,-9.28
2024-04-21T00:56:02.168Z,-9.88
2024-04-21T01:01:08.794Z,-9.79
2024-04-21T01:06:15.020Z,-9.82
2024-04-21T01:11:24.380Z,-9.80
2024-04-21T01:16:30.637Z,-9.84
2024-04-21T01:21:36.650Z,-9.66
2024-04-21T01:26:45.208Z,-9.28
2024-04-21T01:31:51.548Z,-9.43
2024-04-21T01:36:57.504Z,-9.64
2024-04-21T01:42:06.294Z,-8.54
2024-04-21T01:47:12.359Z,-9.36
2024-04-21T01:52:18.954Z,-8.87
2024-04-21T01:57:27.580Z,-9.00
2024-04-21T02:02:33.501Z,-8.63
2024-04-21T02:07:39.569Z,-8.28
2024-04-21T02:12:48.179Z,-9.40
2024-04-21T02:17:54.199Z,-9.84
2024-04-21T02:23:00.319Z,-9.33
2024-04-21T02:28:09.459Z,-8.85
2024-04-21T02:33:15.503Z,-9.76
2024-04-21T02:38:21.618Z,-9.96
2024-04-21T02:43:30.293Z,-10.08
2024-04-21T02:48:36.402Z,-9.95
2024-04-21T02:53:42.454Z,-9.47
2024-04-21T02:58:51.046Z,-9.13
2024-04-21T03:03:57.255Z,-9.60
2024-04-21T03:09:03.309Z,-8.91
2024-04-21T03:14:12.044Z,-8.74
2024-04-21T03:19:18.149Z,-8.39
2024-04-21T03:24:24.449Z,-8.40
2024-04-21T03:29:33.047Z,-9.21
2024-04-21T03:34:38.981Z,-9.03
2024-04-21T03:39:45.132Z,-8.65
2024-04-21T03:44:53.830Z,-7.97
2024-04-21T03:49:59.825Z,-8.38
2024-04-21T03:55:05.991Z,-7.59
2024-04-21T04:00:18.683Z,-8.49
2024-04-21T04:05:27.307Z,-8.35
2024-04-21T04:10:39.722Z,-9.22
2024-04-21T04:15:50.124Z,-9.02
2024-04-21T04:20:56.142Z,-8.97
2024-04-21T04:26:11.437Z,-8.60
2024-04-21T04:31:23.414Z,-8.64
2024-04-21T04:36:29.691Z,-8.46
2024-04-21T04:41:46.439Z,-8.64
2024-04-21T04:47:05.997Z,-7.94
2024-04-21T04:52:13.341Z,-7.69
2024-04-21T04:57:19.400Z,-7.70
2024-04-21T05:02:28.272Z,-6.68
2024-04-21T05:07:35.216Z,-7.39
2024-04-21T05:12:42.410Z,-6.59
2024-04-21T05:17:51.726Z,-6.61
2024-04-21T05:22:57.797Z,-5.39
2024-04-21T05:28:03.857Z,-6.82
2024-04-21T05:33:12.633Z,-7.22
2024-04-21T05:38:18.784Z,-7.23
2024-04-21T05:43:25.003Z,-7.35
2024-04-21T05:48:34.187Z,-7.20
2024-04-21T05:53:40.671Z,-7.19
2024-04-21T05:58:46.760Z,-7.43
2024-04-21T06:03:55.585Z,-8.20
2024-04-21T06:09:01.699Z,-8.67
2024-04-21T06:14:11.273Z,-9.05
2024-04-21T06:19:22.488Z,-9.31
2024-04-21T06:24:28.486Z,-9.12
2024-04-21T06:29:34.641Z,-9.23
2024-04-21T06:34:43.388Z,-9.31
2024-04-21T06:39:49.626Z,-9.63
2024-04-21T06:44:57.765Z,-10.05
2024-04-21T06:50:14.771Z,-9.80
2024-04-21T06:55:20.945Z,-9.60
2024-04-21T07:00:27.153Z,-9.86
2024-04-21T07:05:35.900Z,-9.74
2024-04-21T07:10:42.141Z,-9.56
2024-04-21T07:15:48.323Z,-9.57
2024-04-21T07:20:57.088Z,-9.73
2024-04-21T07:26:05.329Z,-9.73
2024-04-21T07:31:11.217Z,-9.98
2024-04-21T07:36:19.939Z,-9.57
2024-04-21T07:41:26.352Z,-9.87
2024-04-21T07:46:32.266Z,-9.81
2024-04-21T07:51:40.991Z,-10.16
2024-04-21T07:56:48.849Z,-10.27
2024-04-21T08:01:54.972Z,-10.16
2024-04-21T08:07:03.996Z,-10.00
2024-04-21T08:12:10.920Z,-9.62
2024-04-21T08:17:17.161Z,-10.05
2024-04-21T08:22:25.857Z,-9.92
2024-04-21T08:27:31.898Z,-9.85
2024-04-21T08:32:38.083Z,-9.74
2024-04-21T08:37:46.790Z,-9.64
2024-04-21T08:42:57.687Z,-9.86
2024-04-21T08:48:04.078Z,-10.34
2024-04-21T08:53:13.062Z,-9.92
2024-04-21T08:58:20.530Z,-9.39
2024-04-21T09:03:27.236Z,-9.77
2024-04-21T09:08:36.441Z,-9.47
2024-04-21T09:13:42.740Z,-8.94
2024-04-21T09:18:49.077Z,-8.68
2024-04-21T09:23:59.353Z,-8.83
2024-04-21T09:29:06.280Z,-8.55
2024-04-21T09:34:12.471Z,-9.68
2024-04-21T09:39:21.663Z,-8.68
2024-04-21T09:44:29.864Z,-9.10
2024-04-21T09:49:38.327Z,-9.46
2024-04-21T09:54:47.900Z,-8.83
2024-04-21T10:00:03.027Z,-9.79
2024-04-21T10:05:16.574Z,-9.35
2024-04-21T10:10:25.899Z,-9.87
2024-04-21T10:15:33.842Z,-9.67
2024-04-21T10:20:43.620Z,-8.85
2024-04-21T10:25:55.461Z,-9.60
2024-04-21T10:31:08.404Z,-9.15
2024-04-21T10:36:22.229Z,-8.92
2024-04-21T10:41:34.207Z,-9.20
2024-04-21T10:46:40.116Z,-8.96
2024-04-21T10:51:46.196Z,-9.38
2024-04-21T10:57:02.801Z,-9.71
2024-04-21T11:02:09.364Z,-9.78
2024-04-21T11:07:15.585Z,-9.43
2024-04-21T11:12:24.718Z,-10.31
2024-04-21T11:17:31.660Z,-9.59
2024-04-21T11:22:37.749Z,-9.35
2024-04-21T11:27:46.875Z,-9.21
2024-04-21T11:32:56.836Z,-9.50
2024-04-21T11:38:21.072Z,-8.80
2024-04-21T11:43:30.344Z,-9.18
2024-04-21T11:48:37.876Z,-9.28
2024-04-21T11:53:44.664Z,-8.84
2024-04-21T11:58:53.695Z,-9.46
2024-04-21T12:04:00.530Z,-9.55
2024-04-21T12:09:09.933Z,-8.86
2024-04-21T12:14:34.415Z,-8.88
2024-04-21T12:19:40.695Z,-9.60
2024-04-21T12:24:46.970Z,-9.84
2024-04-21T12:29:56.172Z,-9.26
2024-04-21T12:35:02.294Z,-9.63
2024-04-21T12:40:10.237Z,-9.37
2024-04-21T12:45:18.919Z,-9.44
2024-04-21T12:50:26.495Z,-9.36
2024-04-21T12:55:32.854Z,-8.24
2024-04-21T13:00:42.034Z,-9.45
2024-04-21T13:05:48.565Z,-9.77
2024-04-21T13:10:55.156Z,-9.08
2024-04-21T13:16:04.596Z,-9.09
2024-04-21T13:21:10.756Z,-8.90
2024-04-21T13:26:17.076Z,-9.09
2024-04-21T13:31:27.330Z,-9.10
2024-04-21T13:36:39.286Z,-9.22
2024-04-21T13:41:48.685Z,-8.62
2024-04-21T13:46:57.847Z,-9.70
2024-04-21T13:52:07.564Z,-9.29
2024-04-21T13:57:16.385Z,-9.19
2024-04-21T14:02:27.594Z,-8.47
2024-04-21T14:07:33.765Z,-9.19
2024-04-21T14:12:40.141Z,-9.22
2024-04-21T14:17:49.312Z,-9.49
2024-04-21T14:22:55.350Z,-9.81
2024-04-21T14:28:02.006Z,-9.72
2024-04-21T14:33:14.509Z,-9.46
2024-04-21T14:38:24.568Z,-9.52
2024-04-21T14:43:33.823Z,-9.40
2024-04-21T14:48:43.184Z,-9.16
2024-04-21T14:59:41.292Z,-9.66
2024-04-21T15:04:50.021Z,-9.28
2024-04-21T15:09:56.456Z,-9.39
2024-04-21T15:15:02.386Z,-8.54
2024-04-21T15:20:13.980Z,-8.26
2024-04-21T15:25:21.488Z,-9.14
2024-04-21T15:30:29.307Z,-9.12
2024-04-21T15:35:40.483Z,-8.85
2024-04-21T15:40:46.762Z,-9.46
2024-04-21T15:45:52.872Z,-9.17
2024-04-21T15:51:04.093Z,-9.29
2024-04-21T15:56:10.603Z,-8.91
2024-04-21T16:01:16.910Z,-9.06
2024-04-21T16:06:25.710Z,-9.37
2024-04-21T16:11:31.781Z,-9.30
2024-04-21T16:16:40.642Z,-9.53
2024-04-21T16:21:49.551Z,-9.14
2024-04-21T16:26:55.899Z,-8.68
2024-04-21T16:32:02.096Z,-9.13
2024-04-21T16:37:14.100Z,-9.46
2024-04-21T16:42:20.785Z,-9.12
2024-04-21T16:47:32.325Z,-9.56
2024-04-21T16:52:41.717Z,-8.99
2024-04-21T16:57:56.229Z,-9.66
2024-04-21T17:03:03.164Z,-9.39
2024-04-21T17:08:26.657Z,-8.89
2024-04-21T17:13:34.512Z,-9.51
2024-04-21T17:18:43.066Z,-9.31
2024-04-21T17:23:52.184Z,-9.16
2024-04-21T17:29:13.397Z,-9.58
2024-04-21T17:34:32.056Z,-9.23
2024-04-21T17:39:43.374Z,-9.33
2024-04-21T17:44:49.718Z,-9.70
2024-04-21T17:49:56.295Z,-9.29
2024-04-21T17:55:14.181Z,-9.32
2024-04-21T18:00:25.063Z,-9.92
2024-04-21T18:05:36.792Z,-9.61
2024-04-21T18:18:44.921Z,-9.75
2024-04-21T18:24:43.929Z,-9.28
2024-04-21T18:30:00.756Z,-9.66
2024-04-21T18:35:07.840Z,-9.43
2024-04-21T18:40:17.430Z,-9.47
2024-04-21T18:45:26.975Z,-9.13
2024-04-21T18:50:33.722Z,-9.74
2024-04-21T18:55:43.577Z,-9.89
2024-04-21T19:00:52.841Z,-9.86
2024-04-21T19:06:01.266Z,-10.15
2024-04-21T19:11:11.690Z,-10.07
2024-04-21T19:16:24.714Z,-9.94
2024-04-21T19:21:31.958Z,-10.00
2024-04-21T19:26:39.289Z,-9.92
2024-04-21T19:31:48.381Z,-9.90
2024-04-21T19:36:54.599Z,-10.26
2024-04-21T19:42:00.789Z,-9.89
2024-04-21T19:47:09.921Z,-10.10
2024-04-21T19:52:16.199Z,-10.15
2024-04-21T19:57:22.383Z,-10.58
2024-04-21T20:02:32.479Z,-10.52
2024-04-21T20:07:39.263Z,-10.40
2024-04-21T20:12:45.471Z,-10.22
2024-04-21T20:18:10.304Z,-10.12
2024-04-21T20:23:16.647Z,-10.28
2024-04-21T20:28:22.975Z,-10.19
2024-04-21T20:33:31.855Z,-10.13
2024-04-21T20:38:38.054Z,-10.51
2024-04-21T20:43:44.216Z,-10.02
2024-04-21T20:48:55.693Z,-9.89
2024-04-21T20:54:04.693Z,-10.38
2024-04-21T20:59:11.372Z,-10.13
2024-04-21T21:04:20.730Z,-10.53
2024-04-21T21:09:29.126Z,-10.66
2024-04-21T21:14:37.790Z,-10.31
2024-04-21T21:19:46.548Z,-10.58
2024-04-21T21:24:53.006Z,-10.72
2024-04-21T21:29:59.148Z,-10.48
2024-04-21T21:35:09.028Z,-10.62
2024-04-21T21:40:15.421Z,-10.37
2024-04-21T21:45:21.466Z,-10.34
2024-04-21T21:50:30.486Z,-10.31
2024-04-21T21:55:36.687Z,-10.05
2024-04-21T22:00:43.093Z,-10.09
2024-04-21T22:05:52.072Z,-9.90
2024-04-21T22:10:58.568Z,-9.81
2024-04-21T22:16:07.463Z,-9.81
2024-04-21T22:21:16.866Z,-9.96
2024-04-21T22:26:22.911Z,-10.45
2024-04-21T22:31:37.286Z,-10.36
2024-04-21T22:36:51.830Z,-10.66
2024-04-21T22:41:57.864Z,-10.63
2024-04-21T22:47:04.440Z,-10.28
2024-04-21T22:52:13.670Z,-10.39
2024-04-21T22:57:19.644Z,-10.29
2024-04-21T23:02:25.796Z,-10.04
2024-04-21T23:07:34.495Z,-10.15
2024-04-21T23:12:40.517Z,-9.79
2024-04-21T23:17:46.594Z,-10.08
2024-04-21T23:22:55.291Z,-10.35
2024-04-21T23:28:01.367Z,-10.30
2024-04-21T23:33:07.890Z,-10.57
2024-04-21T23:38:16.675Z,-10.43
2024-04-21T23:43:22.755Z,-10.41
2024-04-21T23:48:29.446Z,-9.73
2024-04-21T23:53:38.182Z,-10.03
2024-04-21T23:58:44.335Z,-10.27
